sensor_id;sensor_type;location;lat;lon;timestamp;pressure;altitude;pressure_sealevel;temperature;humidity
19624;BME280;9959;49.798;9.928;2023-02-11T00:02:08;101625.75;;;0.31;85.10
19624;BME280;9959;49.798;9.928;2023-02-11T00:04:35;101629.16;;;0.48;84.17
19624;BME280;9959;49.798;9.928;2023-02-11T00:07:01;101620.44;;;0.31;85.54
19624;BME280;9959;49.798;9.928;2023-02-11T00:09:28;101624.03;;;0.30;86.58
19624;BME280;9959;49.798;9.928;2023-02-11T00:11:57;101627.31;;;0.21;87.15
19624;BME280;9959;49.798;9.928;2023-02-11T00:14:24;101616.19;;;0.29;86.68
19624;BME280;9959;49.798;9.928;2023-02-11T00:16:51;101618.31;;;0.24;87.08
19624;BME280;9959;49.798;9.928;2023-02-11T00:19:18;101622.75;;;0.23;86.69
19624;BME280;9959;49.798;9.928;2023-02-11T00:21:48;101618.41;;;0.22;86.16
19624;BME280;9959;49.798;9.928;2023-02-11T00:24:14;101608.34;;;0.27;86.03
19624;BME280;9959;49.798;9.928;2023-02-11T00:26:41;101615.53;;;0.40;84.86
19624;BME280;9959;49.798;9.928;2023-02-11T00:29:08;101613.72;;;0.40;84.73
19624;BME280;9959;49.798;9.928;2023-02-11T00:31:35;101619.97;;;0.39;84.93
19624;BME280;9959;49.798;9.928;2023-02-11T00:34:02;101620.06;;;0.38;84.72
19624;BME280;9959;49.798;9.928;2023-02-11T00:36:29;101625.53;;;0.49;84.67
19624;BME280;9959;49.798;9.928;2023-02-11T00:38:58;101615.69;;;0.51;84.21
19624;BME280;9959;49.798;9.928;2023-02-11T00:41:25;101615.50;;;0.54;84.42
19624;BME280;9959;49.798;9.928;2023-02-11T00:46:25;101614.31;;;0.58;83.92
19624;BME280;9959;49.798;9.928;2023-02-11T00:48:52;101623.78;;;0.62;83.67
19624;BME280;9959;49.798;9.928;2023-02-11T00:51:21;101628.91;;;0.65;83.38
19624;BME280;9959;49.798;9.928;2023-02-11T00:53:48;101631.94;;;0.59;83.65
19624;BME280;9959;49.798;9.928;2023-02-11T00:56:15;101633.25;;;0.66;83.15
19624;BME280;9959;49.798;9.928;2023-02-11T00:58:42;101633.34;;;0.64;83.15
19624;BME280;9959;49.798;9.928;2023-02-11T01:01:15;101633.81;;;0.71;83.18
19624;BME280;9959;49.798;9.928;2023-02-11T01:03:42;101633.72;;;0.73;82.93
19624;BME280;9959;49.798;9.928;2023-02-11T01:06:09;101629.44;;;0.70;82.82
19624;BME280;9959;49.798;9.928;2023-02-11T01:08:36;101625.00;;;0.71;82.50
19624;BME280;9959;49.798;9.928;2023-02-11T01:11:06;101624.91;;;0.72;82.28
19624;BME280;9959;49.798;9.928;2023-02-11T01:13:35;101624.50;;;0.78;82.52
19624;BME280;9959;49.798;9.928;2023-02-11T01:16:05;101624.34;;;0.67;82.41
19624;BME280;9959;49.798;9.928;2023-02-11T01:18:35;101621.59;;;0.68;82.29
19624;BME280;9959;49.798;9.928;2023-02-11T01:21:03;101610.22;;;0.66;82.78
19624;BME280;9959;49.798;9.928;2023-02-11T01:23:30;101604.63;;;0.71;83.01
19624;BME280;9959;49.798;9.928;2023-02-11T01:25:57;101590.25;;;0.61;83.19
19624;BME280;9959;49.798;9.928;2023-02-11T01:28:26;101581.97;;;0.53;83.92
19624;BME280;9959;49.798;9.928;2023-02-11T01:33:22;101571.50;;;0.37;84.66
19624;BME280;9959;49.798;9.928;2023-02-11T01:35:49;101567.25;;;0.34;84.74
19624;BME280;9959;49.798;9.928;2023-02-11T01:38:20;101565.53;;;0.33;85.22
19624;BME280;9959;49.798;9.928;2023-02-11T01:43:24;101564.25;;;0.26;85.72
19624;BME280;9959;49.798;9.928;2023-02-11T01:48:33;101543.06;;;0.26;85.94
19624;BME280;9959;49.798;9.928;2023-02-11T01:51:10;101539.22;;;0.30;86.19
19624;BME280;9959;49.798;9.928;2023-02-11T01:53:39;101542.81;;;0.29;85.82
19624;BME280;9959;49.798;9.928;2023-02-11T01:56:24;101538.47;;;0.28;86.43
19624;BME280;9959;49.798;9.928;2023-02-11T01:59:23;101531.88;;;0.21;86.64
19624;BME280;9959;49.798;9.928;2023-02-11T02:01:58;101535.19;;;0.25;86.66
19624;BME280;9959;49.798;9.928;2023-02-11T02:04:29;101533.63;;;0.08;87.64
19624;BME280;9959;49.798;9.928;2023-02-11T02:07:02;101526.03;;;0.16;87.75
19624;BME280;9959;49.798;9.928;2023-02-11T02:09:36;101523.75;;;0.24;87.13
19624;BME280;9959;49.798;9.928;2023-02-11T02:12:12;101526.63;;;0.34;86.70
19624;BME280;9959;49.798;9.928;2023-02-11T02:14:40;101519.72;;;0.31;86.73
19624;BME280;9959;49.798;9.928;2023-02-11T02:17:27;101514.22;;;0.34;86.65
19624;BME280;9959;49.798;9.928;2023-02-11T02:28:04;101501.66;;;0.51;86.43
19624;BME280;9959;49.798;9.928;2023-02-11T02:36:42;101504.78;;;0.70;85.53
19624;BME280;9959;49.798;9.928;2023-02-11T02:39:21;101499.28;;;0.73;85.42
19624;BME280;9959;49.798;9.928;2023-02-11T02:41:53;101502.03;;;0.84;84.87
19624;BME280;9959;49.798;9.928;2023-02-11T02:44:22;101493.13;;;0.85;84.93
19624;BME280;9959;49.798;9.928;2023-02-11T02:46:49;101490.16;;;0.77;85.54
19624;BME280;9959;49.798;9.928;2023-02-11T02:49:16;101496.97;;;0.81;86.05
19624;BME280;9959;49.798;9.928;2023-02-11T02:54:28;101506.28;;;0.74;86.34
19624;BME280;9959;49.798;9.928;2023-02-11T03:05:47;101518.59;;;0.75;87.69
19624;BME280;9959;49.798;9.928;2023-02-11T03:08:37;101521.47;;;0.85;86.95
19624;BME280;9959;49.798;9.928;2023-02-11T03:11:08;101516.78;;;0.88;87.05
19624;BME280;9959;49.798;9.928;2023-02-11T03:13:38;101518.59;;;0.88;86.44
19624;BME280;9959;49.798;9.928;2023-02-11T03:16:33;101528.16;;;0.90;86.80
19624;BME280;9959;49.798;9.928;2023-02-11T03:19:12;101518.69;;;0.86;86.74
19624;BME280;9959;49.798;9.928;2023-02-11T03:21:41;101512.66;;;0.84;86.99
19624;BME280;9959;49.798;9.928;2023-02-11T03:24:14;101510.94;;;0.83;87.17
19624;BME280;9959;49.798;9.928;2023-02-11T03:26:47;101500.13;;;0.86;87.05
19624;BME280;9959;49.798;9.928;2023-02-11T03:29:29;101492.16;;;0.86;86.79
19624;BME280;9959;49.798;9.928;2023-02-11T03:32:19;101484.41;;;0.83;87.10
19624;BME280;9959;49.798;9.928;2023-02-11T03:34:53;101498.88;;;0.92;87.03
19624;BME280;9959;49.798;9.928;2023-02-11T03:40:50;101505.22;;;0.89;86.46
19624;BME280;9959;49.798;9.928;2023-02-11T03:43:24;101514.69;;;0.93;86.70
19624;BME280;9959;49.798;9.928;2023-02-11T03:45:56;101517.44;;;0.92;86.52
19624;BME280;9959;49.798;9.928;2023-02-11T03:48:28;101515.03;;;1.01;86.22
19624;BME280;9959;49.798;9.928;2023-02-11T03:50:59;101503.78;;;0.98;86.33
19624;BME280;9959;49.798;9.928;2023-02-11T03:53:27;101486.78;;;1.00;85.95
19624;BME280;9959;49.798;9.928;2023-02-11T03:58:24;101481.91;;;0.94;87.31
19624;BME280;9959;49.798;9.928;2023-02-11T04:01:01;101475.31;;;0.87;87.16
19624;BME280;9959;49.798;9.928;2023-02-11T04:03:30;101467.66;;;0.95;86.92
19624;BME280;9959;49.798;9.928;2023-02-11T04:05:58;101454.72;;;0.91;87.31
19624;BME280;9959;49.798;9.928;2023-02-11T04:08:25;101451.97;;;0.92;87.23
19624;BME280;9959;49.798;9.928;2023-02-11T04:13:21;101455.25;;;0.96;87.05
19624;BME280;9959;49.798;9.928;2023-02-11T04:15:48;101459.91;;;0.92;87.15
19624;BME280;9959;49.798;9.928;2023-02-11T04:18:16;101454.94;;;0.88;87.58
19624;BME280;9959;49.798;9.928;2023-02-11T04:20:43;101453.22;;;0.87;87.36
19624;BME280;9959;49.798;9.928;2023-02-11T04:23:10;101450.47;;;0.88;87.33
19624;BME280;9959;49.798;9.928;2023-02-11T04:25:41;101452.56;;;0.83;87.61
19624;BME280;9959;49.798;9.928;2023-02-11T04:28:11;101437.09;;;0.77;88.06
19624;BME280;9959;49.798;9.928;2023-02-11T04:30:49;101433.91;;;0.72;88.58
19624;BME280;9959;49.798;9.928;2023-02-11T04:33:22;101447.94;;;0.74;88.92
19624;BME280;9959;49.798;9.928;2023-02-11T04:35:49;101441.75;;;0.86;87.91
19624;BME280;9959;49.798;9.928;2023-02-11T04:38:16;101436.47;;;0.86;88.18
19624;BME280;9959;49.798;9.928;2023-02-11T04:40:43;101435.41;;;0.89;88.00
19624;BME280;9959;49.798;9.928;2023-02-11T04:43:10;101432.22;;;0.96;88.23
19624;BME280;9959;49.798;9.928;2023-02-11T04:45:37;101446.03;;;1.01;88.04
19624;BME280;9959;49.798;9.928;2023-02-11T04:48:04;101458.31;;;1.15;87.13
19624;BME280;9959;49.798;9.928;2023-02-11T04:50:34;101463.00;;;1.12;87.35
19624;BME280;9959;49.798;9.928;2023-02-11T04:53:01;101461.94;;;1.14;87.13
19624;BME280;9959;49.798;9.928;2023-02-11T04:55:28;101458.88;;;1.08;87.30
19624;BME280;9959;49.798;9.928;2023-02-11T04:57:55;101450.78;;;1.22;86.81
19624;BME280;9959;49.798;9.928;2023-02-11T05:00:22;101436.66;;;1.34;86.44
19624;BME280;9959;49.798;9.928;2023-02-11T05:02:50;101429.28;;;1.38;86.37
19624;BME280;9959;49.798;9.928;2023-02-11T05:05:17;101430.28;;;1.24;87.24
19624;BME280;9959;49.798;9.928;2023-02-11T05:07:44;101425.19;;;1.21;87.54
19624;BME280;9959;49.798;9.928;2023-02-11T05:10:11;101430.28;;;1.24;87.37
19624;BME280;9959;49.798;9.928;2023-02-11T05:12:37;101425.63;;;1.27;87.34
19624;BME280;9959;49.798;9.928;2023-02-11T05:15:04;101422.22;;;1.25;87.65
19624;BME280;9959;49.798;9.928;2023-02-11T05:17:34;101427.38;;;1.52;85.33
19624;BME280;9959;49.798;9.928;2023-02-11T05:20:01;101427.16;;;1.55;85.52
19624;BME280;9959;49.798;9.928;2023-02-11T05:22:28;101420.25;;;1.53;85.67
19624;BME280;9959;49.798;9.928;2023-02-11T05:24:55;101429.66;;;1.33;86.14
19624;BME280;9959;49.798;9.928;2023-02-11T05:27:21;101426.41;;;1.53;85.06
19624;BME280;9959;49.798;9.928;2023-02-11T05:32:29;101394.31;;;1.56;84.81
19624;BME280;9959;49.798;9.928;2023-02-11T05:37:22;101412.19;;;1.54;85.02
19624;BME280;9959;49.798;9.928;2023-02-11T05:39:49;101428.31;;;1.64;84.38
19624;BME280;9959;49.798;9.928;2023-02-11T05:42:16;101431.78;;;1.64;84.82
19624;BME280;9959;49.798;9.928;2023-02-11T05:44:43;101442.50;;;1.76;84.11
19624;BME280;9959;49.798;9.928;2023-02-11T05:47:10;101452.69;;;1.82;84.02
19624;BME280;9959;49.798;9.928;2023-02-11T05:49:40;101439.91;;;1.87;84.04
19624;BME280;9959;49.798;9.928;2023-02-11T05:52:07;101433.88;;;1.85;83.89
19624;BME280;9959;49.798;9.928;2023-02-11T05:54:42;101418.16;;;1.82;84.15
19624;BME280;9959;49.798;9.928;2023-02-11T05:57:09;101420.34;;;1.88;83.99
19624;BME280;9959;49.798;9.928;2023-02-11T05:59:42;101421.75;;;1.81;83.94
19624;BME280;9959;49.798;9.928;2023-02-11T06:02:09;101413.03;;;1.79;83.99
19624;BME280;9959;49.798;9.928;2023-02-11T06:04:36;101408.66;;;1.90;83.16
19624;BME280;9959;49.798;9.928;2023-02-11T06:07:04;101402.34;;;1.67;84.35
19624;BME280;9959;49.798;9.928;2023-02-11T06:09:30;101414.53;;;1.46;86.07
19624;BME280;9959;49.798;9.928;2023-02-11T06:11:57;101427.50;;;1.38;86.06
19624;BME280;9959;49.798;9.928;2023-02-11T06:14:24;101422.75;;;1.30;86.92
19624;BME280;9959;49.798;9.928;2023-02-11T06:19:31;101420.31;;;1.27;86.90
19624;BME280;9959;49.798;9.928;2023-02-11T06:21:58;101418.41;;;1.29;87.77
19624;BME280;9959;49.798;9.928;2023-02-11T06:24:25;101421.22;;;1.52;87.32
19624;BME280;9959;49.798;9.928;2023-02-11T06:27:12;101419.31;;;1.41;86.17
19624;BME280;9959;49.798;9.928;2023-02-11T06:29:39;101414.34;;;1.37;86.76
19624;BME280;9959;49.798;9.928;2023-02-11T06:32:06;101412.19;;;1.54;85.71
19624;BME280;9959;49.798;9.928;2023-02-11T06:34:48;101412.25;;;1.29;86.61
19624;BME280;9959;49.798;9.928;2023-02-11T06:37:15;101406.94;;;1.29;86.76
19624;BME280;9959;49.798;9.928;2023-02-11T06:39:43;101417.72;;;1.39;87.16
19624;BME280;9959;49.798;9.928;2023-02-11T06:42:14;101428.34;;;1.39;87.22
19624;BME280;9959;49.798;9.928;2023-02-11T06:44:41;101422.47;;;1.59;85.66
19624;BME280;9959;49.798;9.928;2023-02-11T06:47:08;101421.09;;;1.53;86.49
19624;BME280;9959;49.798;9.928;2023-02-11T06:49:35;101416.41;;;1.57;86.48
19624;BME280;9959;49.798;9.928;2023-02-11T06:52:02;101408.00;;;1.63;85.23
19624;BME280;9959;49.798;9.928;2023-02-11T06:54:29;101408.44;;;1.57;85.86
19624;BME280;9959;49.798;9.928;2023-02-11T06:56:56;101427.91;;;1.57;85.79
19624;BME280;9959;49.798;9.928;2023-02-11T06:59:23;101423.81;;;1.64;85.15
19624;BME280;9959;49.798;9.928;2023-02-11T07:01:50;101429.94;;;1.78;84.30
19624;BME280;9959;49.798;9.928;2023-02-11T07:04:17;101426.78;;;1.73;84.32
19624;BME280;9959;49.798;9.928;2023-02-11T07:06:45;101434.00;;;1.70;84.35
19624;BME280;9959;49.798;9.928;2023-02-11T07:09:13;101433.25;;;1.81;85.00
19624;BME280;9959;49.798;9.928;2023-02-11T07:11:40;101421.97;;;1.78;84.92
19624;BME280;9959;49.798;9.928;2023-02-11T07:14:07;101427.25;;;2.14;82.93
19624;BME280;9959;49.798;9.928;2023-02-11T07:16:34;101424.94;;;1.86;83.93
19624;BME280;9959;49.798;9.928;2023-02-11T07:19:01;101420.84;;;1.93;83.59
19624;BME280;9959;49.798;9.928;2023-02-11T07:21:28;101415.81;;;2.01;83.43
19624;BME280;9959;49.798;9.928;2023-02-11T07:23:58;101422.16;;;2.11;82.55
19624;BME280;9959;49.798;9.928;2023-02-11T07:26:25;101426.78;;;2.20;81.65
19624;BME280;9959;49.798;9.928;2023-02-11T07:28:52;101423.94;;;2.34;81.68
19624;BME280;9959;49.798;9.928;2023-02-11T07:31:25;101420.31;;;2.35;80.66
19624;BME280;9959;49.798;9.928;2023-02-11T07:33:54;101422.28;;;2.45;80.12
19624;BME280;9959;49.798;9.928;2023-02-11T07:36:22;101434.75;;;2.44;80.60
19624;BME280;9959;49.798;9.928;2023-02-11T07:38:49;101425.19;;;2.42;80.48
19624;BME280;9959;49.798;9.928;2023-02-11T07:41:19;101438.16;;;2.46;80.46
19624;BME280;9959;49.798;9.928;2023-02-11T07:43:46;101442.84;;;2.43;80.74
19624;BME280;9959;49.798;9.928;2023-02-11T07:46:19;101439.22;;;2.44;79.96
19624;BME280;9959;49.798;9.928;2023-02-11T07:48:49;101433.78;;;2.45;80.30
19624;BME280;9959;49.798;9.928;2023-02-11T07:51:23;101436.66;;;2.42;80.37
19624;BME280;9959;49.798;9.928;2023-02-11T07:53:49;101433.91;;;2.44;80.59
19624;BME280;9959;49.798;9.928;2023-02-11T07:56:18;101432.31;;;2.41;80.60
19624;BME280;9959;49.798;9.928;2023-02-11T07:58:49;101439.22;;;2.44;80.85
19624;BME280;9959;49.798;9.928;2023-02-11T08:01:21;101448.47;;;2.62;80.03
19624;BME280;9959;49.798;9.928;2023-02-11T08:03:51;101439.75;;;2.60;80.34
19624;BME280;9959;49.798;9.928;2023-02-11T08:06:20;101445.56;;;2.76;79.40
19624;BME280;9959;49.798;9.928;2023-02-11T08:08:48;101441.22;;;2.75;79.79
19624;BME280;9959;49.798;9.928;2023-02-11T08:11:26;101461.19;;;2.69;79.81
19624;BME280;9959;49.798;9.928;2023-02-11T08:16:23;101449.19;;;2.75;79.67
19624;BME280;9959;49.798;9.928;2023-02-11T08:18:52;101449.25;;;2.86;79.25
19624;BME280;9959;49.798;9.928;2023-02-11T08:21:22;101457.25;;;2.97;79.25
19624;BME280;9959;49.798;9.928;2023-02-11T08:23:49;101460.19;;;3.17;78.58
19624;BME280;9959;49.798;9.928;2023-02-11T08:26:17;101468.41;;;3.25;78.19
19624;BME280;9959;49.798;9.928;2023-02-11T08:28:48;101464.78;;;3.37;77.27
19624;BME280;9959;49.798;9.928;2023-02-11T08:31:19;101446.22;;;3.58;75.89
19624;BME280;9959;49.798;9.928;2023-02-11T08:33:46;101442.47;;;3.60;76.05
19624;BME280;9959;49.798;9.928;2023-02-11T08:36:16;101452.91;;;3.63;76.37
19624;BME280;9959;49.798;9.928;2023-02-11T08:38:44;101461.34;;;3.91;75.05
19624;BME280;9959;49.798;9.928;2023-02-11T08:41:11;101455.41;;;3.87;74.84
19624;BME280;9959;49.798;9.928;2023-02-11T08:43:41;101463.63;;;3.84;74.97
19624;BME280;9959;49.798;9.928;2023-02-11T08:46:12;101463.38;;;4.10;73.76
19624;BME280;9959;49.798;9.928;2023-02-11T08:48:40;101465.84;;;4.22;73.33
19624;BME280;9959;49.798;9.928;2023-02-11T08:51:29;101473.31;;;4.39;73.30
19624;BME280;9959;49.798;9.928;2023-02-11T08:53:59;101474.03;;;4.41;72.38
19624;BME280;9959;49.798;9.928;2023-02-11T08:56:26;101475.56;;;4.12;73.47
19624;BME280;9959;49.798;9.928;2023-02-11T08:58:56;101480.66;;;4.15;72.90
19624;BME280;9959;49.798;9.928;2023-02-11T09:01:26;101483.97;;;4.39;72.32
19624;BME280;9959;49.798;9.928;2023-02-11T09:03:56;101474.94;;;4.63;71.44
19624;BME280;9959;49.798;9.928;2023-02-11T09:06:25;101474.53;;;4.88;70.50
19624;BME280;9959;49.798;9.928;2023-02-11T09:11:34;101474.97;;;4.72;71.06
19624;BME280;9959;49.798;9.928;2023-02-11T09:14:02;101474.34;;;4.59;71.77
19624;BME280;9959;49.798;9.928;2023-02-11T09:16:31;101481.50;;;4.80;70.91
19624;BME280;9959;49.798;9.928;2023-02-11T09:19:00;101487.22;;;4.75;70.68
19624;BME280;9959;49.798;9.928;2023-02-11T09:21:28;101475.06;;;4.82;70.02
19624;BME280;9959;49.798;9.928;2023-02-11T09:23:56;101469.97;;;5.00;69.72
19624;BME280;9959;49.798;9.928;2023-02-11T09:26:25;101473.75;;;4.97;69.51
19624;BME280;9959;49.798;9.928;2023-02-11T09:28:53;101476.97;;;4.91;70.61
19624;BME280;9959;49.798;9.928;2023-02-11T09:31:22;101468.28;;;5.20;69.10
19624;BME280;9959;49.798;9.928;2023-02-11T09:33:51;101466.28;;;5.22;68.97
19624;BME280;9959;49.798;9.928;2023-02-11T09:36:24;101465.66;;;4.67;70.52
19624;BME280;9959;49.798;9.928;2023-02-11T09:38:53;101464.47;;;5.22;69.20
19624;BME280;9959;49.798;9.928;2023-02-11T09:46:24;101463.94;;;5.28;69.02
19624;BME280;9959;49.798;9.928;2023-02-11T09:54:12;101465.28;;;5.43;69.01
19624;BME280;9959;49.798;9.928;2023-02-11T09:56:42;101460.88;;;5.33;69.37
19624;BME280;9959;49.798;9.928;2023-02-11T09:59:13;101461.31;;;5.38;69.54
19624;BME280;9959;49.798;9.928;2023-02-11T10:04:42;101445.88;;;5.51;69.87
19624;BME280;9959;49.798;9.928;2023-02-11T10:07:30;101454.22;;;5.58;70.37
19624;BME280;9959;49.798;9.928;2023-02-11T10:23:53;101470.75;;;6.32;68.73
19624;BME280;9959;49.798;9.928;2023-02-11T10:26:22;101480.91;;;6.28;69.12
19624;BME280;9959;49.798;9.928;2023-02-11T10:28:51;101488.06;;;6.37;68.70
19624;BME280;9959;49.798;9.928;2023-02-11T10:31:23;101489.47;;;6.90;66.69
19624;BME280;9959;49.798;9.928;2023-02-11T10:33:59;101494.84;;;6.90;66.79
19624;BME280;9959;49.798;9.928;2023-02-11T10:36:36;101498.19;;;6.15;69.57
19624;BME280;9959;49.798;9.928;2023-02-11T10:39:21;101490.91;;;6.74;67.82
19624;BME280;9959;49.798;9.928;2023-02-11T10:44:29;101483.28;;;6.22;69.44
19624;BME280;9959;49.798;9.928;2023-02-11T10:47:01;101477.09;;;6.21;69.57
19624;BME280;9959;49.798;9.928;2023-02-11T10:49:40;101490.91;;;6.26;70.14
19624;BME280;9959;49.798;9.928;2023-02-11T10:57:29;101488.63;;;6.31;69.56
19624;BME280;9959;49.798;9.928;2023-02-11T10:59:59;101491.44;;;6.20;70.12
19624;BME280;9959;49.798;9.928;2023-02-11T11:02:30;101484.28;;;6.50;69.58
19624;BME280;9959;49.798;9.928;2023-02-11T11:05:19;101482.88;;;6.45;69.23
19624;BME280;9959;49.798;9.928;2023-02-11T11:10:29;101489.75;;;6.19;70.38
19624;BME280;9959;49.798;9.928;2023-02-11T11:12:57;101492.31;;;6.50;68.97
19624;BME280;9959;49.798;9.928;2023-02-11T11:15:29;101492.28;;;6.30;70.40
19624;BME280;9959;49.798;9.928;2023-02-11T11:18:16;101477.66;;;6.34;70.40
19624;BME280;9959;49.798;9.928;2023-02-11T11:23:22;101493.44;;;6.37;69.64
19624;BME280;9959;49.798;9.928;2023-02-11T11:28:24;101479.63;;;6.42;69.75
19624;BME280;9959;49.798;9.928;2023-02-11T11:30:53;101473.72;;;6.67;68.99
19624;BME280;9959;49.798;9.928;2023-02-11T11:33:25;101482.72;;;6.57;69.56
19624;BME280;9959;49.798;9.928;2023-02-11T11:38:20;101483.88;;;6.54;69.37
19624;BME280;9959;49.798;9.928;2023-02-11T11:43:20;101476.38;;;6.58;69.04
19624;BME280;9959;49.798;9.928;2023-02-11T11:48:25;101468.50;;;6.66;68.37
19624;BME280;9959;49.798;9.928;2023-02-11T11:53:35;101469.63;;;6.63;68.70
19624;BME280;9959;49.798;9.928;2023-02-11T11:56:10;101466.94;;;6.63;68.46
19624;BME280;9959;49.798;9.928;2023-02-11T11:58:39;101461.31;;;6.76;68.04
19624;BME280;9959;49.798;9.928;2023-02-11T12:12:47;101455.63;;;6.98;67.96
19624;BME280;9959;49.798;9.928;2023-02-11T12:26:15;101458.72;;;7.03;67.54
19624;BME280;9959;49.798;9.928;2023-02-11T12:34:45;101457.63;;;6.58;69.99
19624;BME280;9959;49.798;9.928;2023-02-11T12:37:27;101453.16;;;6.49;70.86
19624;BME280;9959;49.798;9.928;2023-02-11T12:40:18;101453.16;;;6.49;71.41
19624;BME280;9959;49.798;9.928;2023-02-11T12:57:27;101445.47;;;6.92;72.07
19624;BME280;9959;49.798;9.928;2023-02-11T13:03:19;101443.69;;;6.64;70.77
19624;BME280;9959;49.798;9.928;2023-02-11T13:05:52;101433.41;;;6.69;70.91
19624;BME280;9959;49.798;9.928;2023-02-11T13:08:43;101419.25;;;6.86;70.11
19624;BME280;9959;49.798;9.928;2023-02-11T13:11:16;101414.22;;;6.83;70.23
19624;BME280;9959;49.798;9.928;2023-02-11T13:16:39;101417.28;;;6.98;69.42
19624;BME280;9959;49.798;9.928;2023-02-11T13:24:48;101413.97;;;7.13;69.59
19624;BME280;9959;49.798;9.928;2023-02-11T13:27:37;101410.00;;;6.81;70.86
19624;BME280;9959;49.798;9.928;2023-02-11T13:30:27;101405.47;;;6.81;71.03
19624;BME280;9959;49.798;9.928;2023-02-11T13:35:34;101401.06;;;6.99;70.62
19624;BME280;9959;49.798;9.928;2023-02-11T13:38:24;101406.00;;;6.85;71.13
19624;BME280;9959;49.798;9.928;2023-02-11T13:43:32;101406.53;;;7.07;70.64
19624;BME280;9959;49.798;9.928;2023-02-11T13:46:09;101398.78;;;7.04;70.83
19624;BME280;9959;49.798;9.928;2023-02-11T13:48:49;101399.91;;;7.02;71.37
19624;BME280;9959;49.798;9.928;2023-02-11T13:51:35;101395.84;;;6.98;71.65
19624;BME280;9959;49.798;9.928;2023-02-11T13:54:03;101404.00;;;6.96;72.16
19624;BME280;9959;49.798;9.928;2023-02-11T13:56:38;101408.75;;;7.12;71.33
19624;BME280;9959;49.798;9.928;2023-02-11T14:13:32;101417.00;;;6.91;73.25
19624;BME280;9959;49.798;9.928;2023-02-11T14:23:42;101408.03;;;6.63;75.23
19624;BME280;9959;49.798;9.928;2023-02-11T14:29:16;101424.38;;;6.70;75.20
19624;BME280;9959;49.798;9.928;2023-02-11T14:37:16;101431.72;;;6.39;76.93
19624;BME280;9959;49.798;9.928;2023-02-11T14:39:55;101426.66;;;6.45;76.65
19624;BME280;9959;49.798;9.928;2023-02-11T14:42:24;101428.91;;;6.40;77.08
19624;BME280;9959;49.798;9.928;2023-02-11T14:47:33;101437.06;;;6.29;78.56
19624;BME280;9959;49.798;9.928;2023-02-11T14:50:04;101442.13;;;6.32;78.07
19624;BME280;9959;49.798;9.928;2023-02-11T14:52:36;101450.03;;;6.43;77.61
19624;BME280;9959;49.798;9.928;2023-02-11T14:57:34;101452.56;;;6.35;78.90
19624;BME280;9959;49.798;9.928;2023-02-11T15:00:15;101450.47;;;6.39;78.48
19624;BME280;9959;49.798;9.928;2023-02-11T15:02:42;101457.38;;;6.41;78.79
19624;BME280;9959;49.798;9.928;2023-02-11T15:05:30;101463.44;;;6.24;79.18
19624;BME280;9959;49.798;9.928;2023-02-11T15:08:01;101461.31;;;6.37;78.93
19624;BME280;9959;49.798;9.928;2023-02-11T15:10:33;101459.91;;;6.33;79.13
19624;BME280;9959;49.798;9.928;2023-02-11T15:13:01;101470.63;;;6.43;78.76
19624;BME280;9959;49.798;9.928;2023-02-11T15:15:30;101469.63;;;6.34;79.10
19624;BME280;9959;49.798;9.928;2023-02-11T15:18:02;101469.19;;;6.20;79.31
19624;BME280;9959;49.798;9.928;2023-02-11T15:20:33;101467.22;;;6.22;79.61
19624;BME280;9959;49.798;9.928;2023-02-11T15:23:04;101466.78;;;6.17;79.74
19624;BME280;9959;49.798;9.928;2023-02-11T15:25:32;101457.50;;;6.21;79.11
19624;BME280;9959;49.798;9.928;2023-02-11T15:28:14;101456.78;;;6.19;79.24
19624;BME280;9959;49.798;9.928;2023-02-11T15:30:46;101465.94;;;6.16;78.98
19624;BME280;9959;49.798;9.928;2023-02-11T15:33:21;101460.88;;;6.23;78.86
19624;BME280;9959;49.798;9.928;2023-02-11T15:35:48;101462.84;;;6.01;79.46
19624;BME280;9959;49.798;9.928;2023-02-11T15:38:15;101464.25;;;6.15;79.13
19624;BME280;9959;49.798;9.928;2023-02-11T15:43:49;101479.88;;;6.10;79.05
19624;BME280;9959;49.798;9.928;2023-02-11T15:46:20;101488.44;;;6.04;79.36
19624;BME280;9959;49.798;9.928;2023-02-11T15:48:52;101480.41;;;6.04;79.74
19624;BME280;9959;49.798;9.928;2023-02-11T15:51:23;101473.94;;;6.06;79.42
19624;BME280;9959;49.798;9.928;2023-02-11T15:56:29;101475.91;;;5.95;80.14
19624;BME280;9959;49.798;9.928;2023-02-11T15:58:59;101472.78;;;5.90;80.27
19624;BME280;9959;49.798;9.928;2023-02-11T16:01:36;101471.09;;;5.89;80.50
19624;BME280;9959;49.798;9.928;2023-02-11T16:04:05;101466.00;;;5.86;80.74
19624;BME280;9959;49.798;9.928;2023-02-11T16:06:40;101466.47;;;5.91;80.85
19624;BME280;9959;49.798;9.928;2023-02-11T16:11:36;101476.19;;;5.92;80.72
19624;BME280;9959;49.798;9.928;2023-02-11T16:19:23;101473.00;;;5.77;81.47
19624;BME280;9959;49.798;9.928;2023-02-11T16:21:52;101476.66;;;5.76;81.57
19624;BME280;9959;49.798;9.928;2023-02-11T16:24:33;101485.19;;;5.60;82.51
19624;BME280;9959;49.798;9.928;2023-02-11T16:27:03;101478.31;;;5.67;82.27
19624;BME280;9959;49.798;9.928;2023-02-11T16:29:32;101476.78;;;5.65;82.19
19624;BME280;9959;49.798;9.928;2023-02-11T16:32:26;101485.22;;;5.70;81.99
19624;BME280;9959;49.798;9.928;2023-02-11T16:37:23;101489.03;;;5.67;82.22
19624;BME280;9959;49.798;9.928;2023-02-11T16:39:57;101488.38;;;5.54;82.87
19624;BME280;9959;49.798;9.928;2023-02-11T16:42:24;101482.59;;;5.49;83.16
19624;BME280;9959;49.798;9.928;2023-02-11T16:44:51;101493.03;;;5.52;83.23
19624;BME280;9959;49.798;9.928;2023-02-11T16:47:24;101495.25;;;5.47;83.48
19624;BME280;9959;49.798;9.928;2023-02-11T16:49:54;101494.56;;;5.45;83.67
19624;BME280;9959;49.798;9.928;2023-02-11T16:52:22;101504.44;;;5.54;83.07
19624;BME280;9959;49.798;9.928;2023-02-11T16:54:52;101502.13;;;5.40;83.91
19624;BME280;9959;49.798;9.928;2023-02-11T16:57:22;101511.13;;;5.39;84.22
19624;BME280;9959;49.798;9.928;2023-02-11T16:59:50;101513.66;;;5.40;84.23
19624;BME280;9959;49.798;9.928;2023-02-11T17:02:29;101515.75;;;5.37;84.25
19624;BME280;9959;49.798;9.928;2023-02-11T17:04:59;101519.59;;;5.44;84.28
19624;BME280;9959;49.798;9.928;2023-02-11T17:07:26;101529.13;;;5.37;84.33
19624;BME280;9959;49.798;9.928;2023-02-11T17:12:22;101511.66;;;5.33;84.73
19624;BME280;9959;49.798;9.928;2023-02-11T17:14:53;101520.91;;;5.29;84.58